sensor_id;sensor_type;location;lat;lon;timestamp;temperature;humidity
5278;DHT22;2662;51.194;6.614;2023-09-19T00:02:20;16.30;99.90
5278;DHT22;2662;51.194;6.614;2023-09-19T00:04:47;16.30;99.90
5278;DHT22;2662;51.194;6.614;2023-09-19T00:07:15;16.30;99.90
5278;DHT22;2662;51.194;6.614;2023-09-19T00:09:47;16.30;99.90
5278;DHT22;2662;51.194;6.614;2023-09-19T00:12:13;16.30;99.90
5278;DHT22;2662;51.194;6.614;2023-09-19T00:14:40;16.30;99.90
5278;DHT22;2662;51.194;6.614;2023-09-19T00:17:08;16.30;99.90
5278;DHT22;2662;51.194;6.614;2023-09-19T00:19:35;16.20;99.90
5278;DHT22;2662;51.194;6.614;2023-09-19T00:22:03;16.30;99.90
5278;DHT22;2662;51.194;6.614;2023-09-19T00:24:30;16.30;99.90
5278;DHT22;2662;51.194;6.614;2023-09-19T00:26:57;16.20;99.90
5278;DHT22;2662;51.194;6.614;2023-09-19T00:29:25;16.20;99.90
5278;DHT22;2662;51.194;6.614;2023-09-19T00:31:54;16.20;99.90
5278;DHT22;2662;51.194;6.614;2023-09-19T00:34:22;16.20;99.90
5278;DHT22;2662;51.194;6.614;2023-09-19T00:36:50;16.20;99.90
5278;DHT22;2662;51.194;6.614;2023-09-19T00:39:19;16.20;99.90
5278;DHT22;2662;51.194;6.614;2023-09-19T00:41:47;16.20;99.90
5278;DHT22;2662;51.194;6.614;2023-09-19T00:44:14;16.20;99.90
5278;DHT22;2662;51.194;6.614;2023-09-19T00:46:41;16.20;99.90
5278;DHT22;2662;51.194;6.614;2023-09-19T00:49:09;16.10;99.90
5278;DHT22;2662;51.194;6.614;2023-09-19T00:51:38;16.10;99.90
5278;DHT22;2662;51.194;6.614;2023-09-19T00:54:07;16.10;99.90
5278;DHT22;2662;51.194;6.614;2023-09-19T00:56:34;16.10;99.90
5278;DHT22;2662;51.194;6.614;2023-09-19T00:59:03;16.10;99.90
5278;DHT22;2662;51.194;6.614;2023-09-19T01:01:30;16.00;99.90
5278;DHT22;2662;51.194;6.614;2023-09-19T01:03:58;16.00;99.90
5278;DHT22;2662;51.194;6.614;2023-09-19T01:06:25;16.00;99.90
5278;DHT22;2662;51.194;6.614;2023-09-19T01:08:53;16.00;99.90
5278;DHT22;2662;51.194;6.614;2023-09-19T01:11:27;16.00;99.90
5278;DHT22;2662;51.194;6.614;2023-09-19T01:14:13;16.00;99.90
5278;DHT22;2662;51.194;6.614;2023-09-19T01:16:48;15.90;99.90
5278;DHT22;2662;51.194;6.614;2023-09-19T01:19:33;15.90;99.90
5278;DHT22;2662;51.194;6.614;2023-09-19T01:22:13;15.90;99.90
5278;DHT22;2662;51.194;6.614;2023-09-19T01:25:20;15.90;99.90
5278;DHT22;2662;51.194;6.614;2023-09-19T01:28:30;15.90;99.90
5278;DHT22;2662;51.194;6.614;2023-09-19T01:31:02;15.80;99.90
5278;DHT22;2662;51.194;6.614;2023-09-19T01:33:54;15.80;99.90
5278;DHT22;2662;51.194;6.614;2023-09-19T01:36:29;15.80;99.90
5278;DHT22;2662;51.194;6.614;2023-09-19T01:38:57;15.90;99.90
5278;DHT22;2662;51.194;6.614;2023-09-19T01:41:37;15.90;99.90
5278;DHT22;2662;51.194;6.614;2023-09-19T01:44:09;15.90;99.90
5278;DHT22;2662;51.194;6.614;2023-09-19T01:46:39;15.90;99.90
5278;DHT22;2662;51.194;6.614;2023-09-19T01:49:22;16.00;99.90
5278;DHT22;2662;51.194;6.614;2023-09-19T01:52:03;16.00;99.90
5278;DHT22;2662;51.194;6.614;2023-09-19T01:54:36;16.00;99.90
5278;DHT22;2662;51.194;6.614;2023-09-19T01:57:09;16.00;99.90
5278;DHT22;2662;51.194;6.614;2023-09-19T01:59:43;16.00;99.90
5278;DHT22;2662;51.194;6.614;2023-09-19T02:02:13;16.10;99.90
5278;DHT22;2662;51.194;6.614;2023-09-19T02:04:41;16.10;99.90
5278;DHT22;2662;51.194;6.614;2023-09-19T02:07:08;16.10;99.90
5278;DHT22;2662;51.194;6.614;2023-09-19T02:09:34;16.10;99.90
5278;DHT22;2662;51.194;6.614;2023-09-19T02:12:04;16.00;99.90
5278;DHT22;2662;51.194;6.614;2023-09-19T02:14:31;16.00;99.90
5278;DHT22;2662;51.194;6.614;2023-09-19T02:16:58;16.00;99.90
5278;DHT22;2662;51.194;6.614;2023-09-19T02:19:27;16.00;99.90
5278;DHT22;2662;51.194;6.614;2023-09-19T02:21:55;16.00;99.90
5278;DHT22;2662;51.194;6.614;2023-09-19T02:24:22;15.90;99.90
5278;DHT22;2662;51.194;6.614;2023-09-19T02:26:52;15.90;99.90
5278;DHT22;2662;51.194;6.614;2023-09-19T02:29:20;15.90;99.90
5278;DHT22;2662;51.194;6.614;2023-09-19T02:31:47;15.90;99.90
5278;DHT22;2662;51.194;6.614;2023-09-19T02:34:14;15.90;99.90
5278;DHT22;2662;51.194;6.614;2023-09-19T02:36:43;15.90;99.90
5278;DHT22;2662;51.194;6.614;2023-09-19T02:39:11;15.80;99.90
5278;DHT22;2662;51.194;6.614;2023-09-19T02:41:38;15.80;99.90
5278;DHT22;2662;51.194;6.614;2023-09-19T02:44:07;15.80;99.90
5278;DHT22;2662;51.194;6.614;2023-09-19T02:46:34;15.80;99.90
5278;DHT22;2662;51.194;6.614;2023-09-19T02:49:02;15.80;99.90
5278;DHT22;2662;51.194;6.614;2023-09-19T02:51:30;15.80;99.90
5278;DHT22;2662;51.194;6.614;2023-09-19T02:53:59;15.80;99.90
5278;DHT22;2662;51.194;6.614;2023-09-19T02:56:26;15.80;99.90
5278;DHT22;2662;51.194;6.614;2023-09-19T02:58:53;15.80;99.90
5278;DHT22;2662;51.194;6.614;2023-09-19T03:01:20;15.80;99.90
5278;DHT22;2662;51.194;6.614;2023-09-19T03:03:47;15.80;99.90
5278;DHT22;2662;51.194;6.614;2023-09-19T03:06:15;15.80;99.90
5278;DHT22;2662;51.194;6.614;2023-09-19T03:08:46;15.80;99.90
5278;DHT22;2662;51.194;6.614;2023-09-19T03:11:16;15.80;99.90
5278;DHT22;2662;51.194;6.614;2023-09-19T03:13:50;15.80;99.90
5278;DHT22;2662;51.194;6.614;2023-09-19T03:16:17;15.80;99.90
5278;DHT22;2662;51.194;6.614;2023-09-19T03:18:44;15.80;99.90
5278;DHT22;2662;51.194;6.614;2023-09-19T03:21:12;15.80;99.90
5278;DHT22;2662;51.194;6.614;2023-09-19T03:23:40;15.80;99.90
5278;DHT22;2662;51.194;6.614;2023-09-19T03:26:07;15.70;99.90
5278;DHT22;2662;51.194;6.614;2023-09-19T03:28:35;15.70;99.90
5278;DHT22;2662;51.194;6.614;2023-09-19T03:31:03;15.70;99.90
5278;DHT22;2662;51.194;6.614;2023-09-19T03:33:30;15.60;99.90
5278;DHT22;2662;51.194;6.614;2023-09-19T03:35:58;15.60;99.90
5278;DHT22;2662;51.194;6.614;2023-09-19T03:38:26;15.60;99.90
5278;DHT22;2662;51.194;6.614;2023-09-19T03:40:54;15.60;99.90
5278;DHT22;2662;51.194;6.614;2023-09-19T03:43:21;15.60;99.90
5278;DHT22;2662;51.194;6.614;2023-09-19T03:45:49;15.60;99.90
5278;DHT22;2662;51.194;6.614;2023-09-19T03:48:16;15.60;99.90
5278;DHT22;2662;51.194;6.614;2023-09-19T03:50:43;15.60;99.90
5278;DHT22;2662;51.194;6.614;2023-09-19T03:53:09;15.60;99.90
5278;DHT22;2662;51.194;6.614;2023-09-19T03:55:35;15.60;99.90
5278;DHT22;2662;51.194;6.614;2023-09-19T03:58:04;15.60;99.90
5278;DHT22;2662;51.194;6.614;2023-09-19T04:00:31;15.60;99.90
5278;DHT22;2662;51.194;6.614;2023-09-19T04:02:59;15.60;99.90
5278;DHT22;2662;51.194;6.614;2023-09-19T04:05:27;15.60;99.90
5278;DHT22;2662;51.194;6.614;2023-09-19T04:07:54;15.60;99.90
5278;DHT22;2662;51.194;6.614;2023-09-19T04:10:21;15.60;99.90
5278;DHT22;2662;51.194;6.614;2023-09-19T04:12:51;15.70;99.90
5278;DHT22;2662;51.194;6.614;2023-09-19T04:15:18;15.60;99.90
5278;DHT22;2662;51.194;6.614;2023-09-19T04:17:45;15.60;99.90
5278;DHT22;2662;51.194;6.614;2023-09-19T04:20:13;15.60;99.90
5278;DHT22;2662;51.194;6.614;2023-09-19T04:22:40;15.60;99.90
5278;DHT22;2662;51.194;6.614;2023-09-19T04:25:07;15.60;99.90
5278;DHT22;2662;51.194;6.614;2023-09-19T04:27:34;15.60;99.90
5278;DHT22;2662;51.194;6.614;2023-09-19T04:30:01;15.60;99.90
5278;DHT22;2662;51.194;6.614;2023-09-19T04:32:33;15.60;99.90
5278;DHT22;2662;51.194;6.614;2023-09-19T04:35:01;15.60;99.90
5278;DHT22;2662;51.194;6.614;2023-09-19T04:37:32;15.60;99.90
5278;DHT22;2662;51.194;6.614;2023-09-19T04:40:00;15.60;99.90
5278;DHT22;2662;51.194;6.614;2023-09-19T04:42:30;15.60;99.90
5278;DHT22;2662;51.194;6.614;2023-09-19T04:44:56;15.60;99.90
5278;DHT22;2662;51.194;6.614;2023-09-19T04:47:25;15.60;99.90
5278;DHT22;2662;51.194;6.614;2023-09-19T04:49:52;15.60;99.90
5278;DHT22;2662;51.194;6.614;2023-09-19T04:52:18;15.60;99.90
5278;DHT22;2662;51.194;6.614;2023-09-19T04:54:47;15.60;99.90
5278;DHT22;2662;51.194;6.614;2023-09-19T04:57:14;15.60;99.90
5278;DHT22;2662;51.194;6.614;2023-09-19T04:59:41;15.60;99.90
5278;DHT22;2662;51.194;6.614;2023-09-19T05:02:08;15.60;99.90
5278;DHT22;2662;51.194;6.614;2023-09-19T05:04:35;15.50;99.90
5278;DHT22;2662;51.194;6.614;2023-09-19T05:07:01;15.50;99.90
5278;DHT22;2662;51.194;6.614;2023-09-19T05:09:29;15.60;99.90
5278;DHT22;2662;51.194;6.614;2023-09-19T05:11:57;15.60;99.90
5278;DHT22;2662;51.194;6.614;2023-09-19T05:14:24;15.70;99.90
5278;DHT22;2662;51.194;6.614;2023-09-19T05:16:50;15.70;99.90
5278;DHT22;2662;51.194;6.614;2023-09-19T05:19:17;15.80;99.90
5278;DHT22;2662;51.194;6.614;2023-09-19T05:21:44;15.80;99.90
5278;DHT22;2662;51.194;6.614;2023-09-19T05:24:11;15.80;99.90
5278;DHT22;2662;51.194;6.614;2023-09-19T05:26:40;15.80;99.90
5278;DHT22;2662;51.194;6.614;2023-09-19T05:29:08;15.90;99.90
5278;DHT22;2662;51.194;6.614;2023-09-19T05:31:34;15.90;99.90
5278;DHT22;2662;51.194;6.614;2023-09-19T05:34:06;16.00;99.90
5278;DHT22;2662;51.194;6.614;2023-09-19T05:36:33;16.00;99.90
5278;DHT22;2662;51.194;6.614;2023-09-19T05:39:00;16.00;99.90
5278;DHT22;2662;51.194;6.614;2023-09-19T05:41:26;16.00;99.90
5278;DHT22;2662;51.194;6.614;2023-09-19T05:43:52;16.10;99.90
5278;DHT22;2662;51.194;6.614;2023-09-19T05:46:21;16.10;99.90
5278;DHT22;2662;51.194;6.614;2023-09-19T05:48:47;16.20;99.90
5278;DHT22;2662;51.194;6.614;2023-09-19T05:51:15;16.30;99.90
5278;DHT22;2662;51.194;6.614;2023-09-19T05:53:43;16.30;99.90
5278;DHT22;2662;51.194;6.614;2023-09-19T05:56:10;16.30;99.90
5278;DHT22;2662;51.194;6.614;2023-09-19T05:58:36;16.40;99.90
5278;DHT22;2662;51.194;6.614;2023-09-19T06:01:04;16.40;99.90
5278;DHT22;2662;51.194;6.614;2023-09-19T06:03:34;16.50;99.90
5278;DHT22;2662;51.194;6.614;2023-09-19T06:06:01;16.50;99.90
5278;DHT22;2662;51.194;6.614;2023-09-19T06:08:28;16.60;99.90
5278;DHT22;2662;51.194;6.614;2023-09-19T06:10:55;16.60;99.90
5278;DHT22;2662;51.194;6.614;2023-09-19T06:13:22;16.60;99.90
5278;DHT22;2662;51.194;6.614;2023-09-19T06:15:52;16.70;99.90
5278;DHT22;2662;51.194;6.614;2023-09-19T06:18:19;16.70;99.90
5278;DHT22;2662;51.194;6.614;2023-09-19T06:20:48;16.60;99.90
5278;DHT22;2662;51.194;6.614;2023-09-19T06:23:16;16.70;99.90
5278;DHT22;2662;51.194;6.614;2023-09-19T06:25:45;16.70;99.90
5278;DHT22;2662;51.194;6.614;2023-09-19T06:28:12;16.80;99.90
5278;DHT22;2662;51.194;6.614;2023-09-19T06:30:40;16.80;99.90
5278;DHT22;2662;51.194;6.614;2023-09-19T06:33:07;16.90;99.90
5278;DHT22;2662;51.194;6.614;2023-09-19T06:35:34;16.90;99.90
5278;DHT22;2662;51.194;6.614;2023-09-19T06:38:04;17.00;99.90
5278;DHT22;2662;51.194;6.614;2023-09-19T06:40:31;17.10;99.90
5278;DHT22;2662;51.194;6.614;2023-09-19T06:42:58;17.10;99.90
5278;DHT22;2662;51.194;6.614;2023-09-19T06:45:28;17.00;99.90
5278;DHT22;2662;51.194;6.614;2023-09-19T06:47:54;17.10;99.90
5278;DHT22;2662;51.194;6.614;2023-09-19T06:50:23;17.20;99.90
5278;DHT22;2662;51.194;6.614;2023-09-19T06:52:51;17.30;99.90
5278;DHT22;2662;51.194;6.614;2023-09-19T06:55:22;17.40;99.90
5278;DHT22;2662;51.194;6.614;2023-09-19T06:57:50;17.50;99.90
5278;DHT22;2662;51.194;6.614;2023-09-19T07:00:20;17.50;99.90
5278;DHT22;2662;51.194;6.614;2023-09-19T07:02:55;17.70;99.90
5278;DHT22;2662;51.194;6.614;2023-09-19T07:05:22;17.80;99.90
5278;DHT22;2662;51.194;6.614;2023-09-19T07:07:49;18.00;99.90
5278;DHT22;2662;51.194;6.614;2023-09-19T07:10:20;18.10;99.90
5278;DHT22;2662;51.194;6.614;2023-09-19T07:12:54;18.30;99.90
5278;DHT22;2662;51.194;6.614;2023-09-19T07:15:21;18.30;99.90
5278;DHT22;2662;51.194;6.614;2023-09-19T07:17:50;18.40;99.90
5278;DHT22;2662;51.194;6.614;2023-09-19T07:20:17;18.50;99.90
5278;DHT22;2662;51.194;6.614;2023-09-19T07:22:44;18.60;99.90
5278;DHT22;2662;51.194;6.614;2023-09-19T07:25:10;18.90;99.90
5278;DHT22;2662;51.194;6.614;2023-09-19T07:27:40;19.00;99.90
5278;DHT22;2662;51.194;6.614;2023-09-19T07:30:08;19.30;99.90
5278;DHT22;2662;51.194;6.614;2023-09-19T07:32:35;19.50;99.90
5278;DHT22;2662;51.194;6.614;2023-09-19T07:35:03;19.60;99.90
5278;DHT22;2662;51.194;6.614;2023-09-19T07:37:30;19.60;99.90
5278;DHT22;2662;51.194;6.614;2023-09-19T07:39:58;19.80;99.90
5278;DHT22;2662;51.194;6.614;2023-09-19T07:42:25;20.00;99.90
5278;DHT22;2662;51.194;6.614;2023-09-19T07:44:53;20.20;99.90
5278;DHT22;2662;51.194;6.614;2023-09-19T07:47:20;20.50;99.90
5278;DHT22;2662;51.194;6.614;2023-09-19T07:49:47;20.50;99.90
5278;DHT22;2662;51.194;6.614;2023-09-19T07:52:14;20.80;99.90
5278;DHT22;2662;51.194;6.614;2023-09-19T07:54:41;21.10;99.90
5278;DHT22;2662;51.194;6.614;2023-09-19T07:57:09;21.10;99.90
5278;DHT22;2662;51.194;6.614;2023-09-19T07:59:37;21.20;99.90
5278;DHT22;2662;51.194;6.614;2023-09-19T08:02:05;21.40;99.90
5278;DHT22;2662;51.194;6.614;2023-09-19T08:04:33;21.50;99.90
5278;DHT22;2662;51.194;6.614;2023-09-19T08:07:00;21.40;99.90
5278;DHT22;2662;51.194;6.614;2023-09-19T08:09:29;21.70;99.90
5278;DHT22;2662;51.194;6.614;2023-09-19T08:11:58;21.80;99.90
5278;DHT22;2662;51.194;6.614;2023-09-19T08:14:29;22.20;99.90
5278;DHT22;2662;51.194;6.614;2023-09-19T08:16:56;22.20;99.90
5278;DHT22;2662;51.194;6.614;2023-09-19T08:19:25;22.40;99.90
5278;DHT22;2662;51.194;6.614;2023-09-19T08:21:55;22.90;99.90
5278;DHT22;2662;51.194;6.614;2023-09-19T08:24:24;23.30;99.90
5278;DHT22;2662;51.194;6.614;2023-09-19T08:26:53;23.30;99.90
5278;DHT22;2662;51.194;6.614;2023-09-19T08:29:20;23.10;99.90
5278;DHT22;2662;51.194;6.614;2023-09-19T08:31:47;23.00;99.90
5278;DHT22;2662;51.194;6.614;2023-09-19T08:34:15;22.80;99.90
5278;DHT22;2662;51.194;6.614;2023-09-19T08:36:43;22.80;99.90
5278;DHT22;2662;51.194;6.614;2023-09-19T08:39:10;23.20;99.90
5278;DHT22;2662;51.194;6.614;2023-09-19T08:41:39;23.00;99.90
5278;DHT22;2662;51.194;6.614;2023-09-19T08:44:06;22.90;99.90
5278;DHT22;2662;51.194;6.614;2023-09-19T08:46:34;23.10;99.90
5278;DHT22;2662;51.194;6.614;2023-09-19T08:49:05;23.30;99.90
5278;DHT22;2662;51.194;6.614;2023-09-19T08:51:43;23.40;99.90
5278;DHT22;2662;51.194;6.614;2023-09-19T08:54:20;23.40;99.90
5278;DHT22;2662;51.194;6.614;2023-09-19T08:56:53;23.30;99.90
5278;DHT22;2662;51.194;6.614;2023-09-19T08:59:21;23.50;99.90
5278;DHT22;2662;51.194;6.614;2023-09-19T09:01:51;23.80;99.90
5278;DHT22;2662;51.194;6.614;2023-09-19T09:04:19;23.70;99.90
5278;DHT22;2662;51.194;6.614;2023-09-19T09:06:49;23.60;99.90
5278;DHT22;2662;51.194;6.614;2023-09-19T09:09:18;23.60;99.90
5278;DHT22;2662;51.194;6.614;2023-09-19T09:11:48;24.10;99.90
5278;DHT22;2662;51.194;6.614;2023-09-19T09:14:17;24.70;99.90
5278;DHT22;2662;51.194;6.614;2023-09-19T09:16:45;25.40;99.90
5278;DHT22;2662;51.194;6.614;2023-09-19T09:19:14;25.30;99.90
5278;DHT22;2662;51.194;6.614;2023-09-19T09:21:47;25.20;99.90
5278;DHT22;2662;51.194;6.614;2023-09-19T09:24:29;25.40;99.90
5278;DHT22;2662;51.194;6.614;2023-09-19T09:26:59;25.90;99.90
5278;DHT22;2662;51.194;6.614;2023-09-19T09:29:41;25.40;99.90
5278;DHT22;2662;51.194;6.614;2023-09-19T09:32:19;25.00;99.90
5278;DHT22;2662;51.194;6.614;2023-09-19T09:34:48;24.70;99.90
5278;DHT22;2662;51.194;6.614;2023-09-19T09:37:17;24.20;99.90
5278;DHT22;2662;51.194;6.614;2023-09-19T09:39:53;24.00;99.90
5278;DHT22;2662;51.194;6.614;2023-09-19T09:42:34;24.20;99.90
5278;DHT22;2662;51.194;6.614;2023-09-19T09:45:15;24.10;99.90
5278;DHT22;2662;51.194;6.614;2023-09-19T09:47:43;24.00;99.90
5278;DHT22;2662;51.194;6.614;2023-09-19T09:50:24;24.20;99.90
5278;DHT22;2662;51.194;6.614;2023-09-19T09:52:56;24.30;99.90
5278;DHT22;2662;51.194;6.614;2023-09-19T09:56:02;23.90;99.90
5278;DHT22;2662;51.194;6.614;2023-09-19T09:58:31;23.60;99.90
5278;DHT22;2662;51.194;6.614;2023-09-19T10:00:59;23.50;99.90
5278;DHT22;2662;51.194;6.614;2023-09-19T10:03:36;23.60;99.90
5278;DHT22;2662;51.194;6.614;2023-09-19T10:06:10;23.70;99.90
5278;DHT22;2662;51.194;6.614;2023-09-19T10:09:02;23.60;99.90
5278;DHT22;2662;51.194;6.614;2023-09-19T10:11:43;23.30;99.90
5278;DHT22;2662;51.194;6.614;2023-09-19T10:14:11;23.50;99.90
5278;DHT22;2662;51.194;6.614;2023-09-19T10:16:41;23.30;99.90
5278;DHT22;2662;51.194;6.614;2023-09-19T10:19:15;23.10;99.90
5278;DHT22;2662;51.194;6.614;2023-09-19T10:21:44;22.40;99.90
5278;DHT22;2662;51.194;6.614;2023-09-19T10:24:14;22.10;99.90
5278;DHT22;2662;51.194;6.614;2023-09-19T10:26:42;22.40;99.90
5278;DHT22;2662;51.194;6.614;2023-09-19T10:29:11;22.80;99.90
5278;DHT22;2662;51.194;6.614;2023-09-19T10:31:42;23.10;99.90
5278;DHT22;2662;51.194;6.614;2023-09-19T10:34:14;23.60;99.90
5278;DHT22;2662;51.194;6.614;2023-09-19T10:36:44;23.80;99.90
5278;DHT22;2662;51.194;6.614;2023-09-19T10:39:15;23.70;99.90
5278;DHT22;2662;51.194;6.614;2023-09-19T10:41:50;23.40;99.90
5278;DHT22;2662;51.194;6.614;2023-09-19T10:44:22;23.10;99.90
5278;DHT22;2662;51.194;6.614;2023-09-19T10:46:51;22.80;99.90
5278;DHT22;2662;51.194;6.614;2023-09-19T10:49:19;22.50;99.90
5278;DHT22;2662;51.194;6.614;2023-09-19T10:51:46;22.30;99.90
5278;DHT22;2662;51.194;6.614;2023-09-19T10:54:18;22.40;99.90
5278;DHT22;2662;51.194;6.614;2023-09-19T10:56:50;22.20;99.90
5278;DHT22;2662;51.194;6.614;2023-09-19T10:59:19;22.40;99.90
5278;DHT22;2662;51.194;6.614;2023-09-19T11:01:47;22.20;99.90
5278;DHT22;2662;51.194;6.614;2023-09-19T11:04:24;22.40;99.90
5278;DHT22;2662;51.194;6.614;2023-09-19T11:07:06;22.50;99.90
5278;DHT22;2662;51.194;6.614;2023-09-19T11:09:49;22.30;99.90
5278;DHT22;2662;51.194;6.614;2023-09-19T11:12:49;22.10;99.90
5278;DHT22;2662;51.194;6.614;2023-09-19T11:18:52;22.10;99.90
5278;DHT22;2662;51.194;6.614;2023-09-19T11:21:53;21.90;99.90
5278;DHT22;2662;51.194;6.614;2023-09-19T11:24:32;22.10;99.90
5278;DHT22;2662;51.194;6.614;2023-09-19T11:27:11;22.00;99.90
5278;DHT22;2662;51.194;6.614;2023-09-19T11:29:39;22.00;99.90
5278;DHT22;2662;51.194;6.614;2023-09-19T11:32:06;22.00;99.90
5278;DHT22;2662;51.194;6.614;2023-09-19T11:34:45;21.80;99.90
5278;DHT22;2662;51.194;6.614;2023-09-19T11:40:37;22.00;99.90
5278;DHT22;2662;51.194;6.614;2023-09-19T11:43:31;21.90;99.90
5278;DHT22;2662;51.194;6.614;2023-09-19T11:46:06;21.90;99.90
5278;DHT22;2662;51.194;6.614;2023-09-19T11:48:34;21.70;99.90
5278;DHT22;2662;51.194;6.614;2023-09-19T11:51:14;21.80;99.90
5278;DHT22;2662;51.194;6.614;2023-09-19T11:53:45;21.80;99.90
5278;DHT22;2662;51.194;6.614;2023-09-19T11:56:14;21.90;99.90
5278;DHT22;2662;51.194;6.614;2023-09-19T11:58:44;21.90;99.90
5278;DHT22;2662;51.194;6.614;2023-09-19T12:01:19;21.90;99.90
5278;DHT22;2662;51.194;6.614;2023-09-19T12:03:54;21.90;99.90
5278;DHT22;2662;51.194;6.614;2023-09-19T12:06:23;22.10;99.90
5278;DHT22;2662;51.194;6.614;2023-09-19T12:08:50;22.10;99.90
5278;DHT22;2662;51.194;6.614;2023-09-19T12:11:21;22.10;99.90
5278;DHT22;2662;51.194;6.614;2023-09-19T12:13:50;22.20;99.90
5278;DHT22;2662;51.194;6.614;2023-09-19T12:16:19;22.40;99.90
5278;DHT22;2662;51.194;6.614;2023-09-19T12:18:49;22.40;99.90
5278;DHT22;2662;51.194;6.614;2023-09-19T12:21:27;22.50;99.90
5278;DHT22;2662;51.194;6.614;2023-09-19T12:24:07;22.40;99.90
5278;DHT22;2662;51.194;6.614;2023-09-19T12:26:42;22.30;99.90
5278;DHT22;2662;51.194;6.614;2023-09-19T12:29:14;22.30;99.90
5278;DHT22;2662;51.194;6.614;2023-09-19T12:31:52;22.30;99.90
5278;DHT22;2662;51.194;6.614;2023-09-19T12:34:23;22.40;99.90
5278;DHT22;2662;51.194;6.614;2023-09-19T12:37:04;22.50;99.90
5278;DHT22;2662;51.194;6.614;2023-09-19T12:39:37;22.50;99.90
5278;DHT22;2662;51.194;6.614;2023-09-19T12:42:04;22.20;99.90
5278;DHT22;2662;51.194;6.614;2023-09-19T12:44:36;22.10;99.90
5278;DHT22;2662;51.194;6.614;2023-09-19T12:47:11;22.00;99.90
5278;DHT22;2662;51.194;6.614;2023-09-19T12:50:09;22.00;99.90
5278;DHT22;2662;51.194;6.614;2023-09-19T12:52:45;22.10;99.90
5278;DHT22;2662;51.194;6.614;2023-09-19T12:55:21;22.10;99.90
5278;DHT22;2662;51.194;6.614;2023-09-19T12:58:08;22.10;99.90
5278;DHT22;2662;51.194;6.614;2023-09-19T13:00:38;22.10;99.90
5278;DHT22;2662;51.194;6.614;2023-09-19T13:03:12;22.10;99.90
5278;DHT22;2662;51.194;6.614;2023-09-19T13:05:54;22.20;99.90
5278;DHT22;2662;51.194;6.614;2023-09-19T13:08:24;22.20;99.90
5278;DHT22;2662;51.194;6.614;2023-09-19T13:11:05;22.30;99.90
5278;DHT22;2662;51.194;6.614;2023-09-19T13:13:35;22.40;99.90
5278;DHT22;2662;51.194;6.614;2023-09-19T13:16:04;22.40;99.90
5278;DHT22;2662;51.194;6.614;2023-09-19T13:18:42;22.50;99.90
5278;DHT22;2662;51.194;6.614;2023-09-19T13:21:11;22.50;99.90
5278;DHT22;2662;51.194;6.614;2023-09-19T13:23:41;22.60;99.90
5278;DHT22;2662;51.194;6.614;2023-09-19T13:26:09;22.60;99.90
5278;DHT22;2662;51.194;6.614;2023-09-19T13:28:37;22.60;99.90
5278;DHT22;2662;51.194;6.614;2023-09-19T13:31:05;22.70;99.90
5278;DHT22;2662;51.194;6.614;2023-09-19T13:33:34;22.80;99.90
5278;DHT22;2662;51.194;6.614;2023-09-19T13:36:02;22.80;99.90
5278;DHT22;2662;51.194;6.614;2023-09-19T13:38:30;22.80;99.90
5278;DHT22;2662;51.194;6.614;2023-09-19T13:40:56;22.90;99.90
5278;DHT22;2662;51.194;6.614;2023-09-19T13:43:25;22.80;99.90
5278;DHT22;2662;51.194;6.614;2023-09-19T13:45:51;22.80;99.90
5278;DHT22;2662;51.194;6.614;2023-09-19T13:48:20;22.60;99.90
5278;DHT22;2662;51.194;6.614;2023-09-19T13:50:48;22.50;99.90
5278;DHT22;2662;51.194;6.614;2023-09-19T13:53:15;22.50;99.90
5278;DHT22;2662;51.194;6.614;2023-09-19T13:55:42;22.50;99.90
5278;DHT22;2662;51.194;6.614;2023-09-19T13:58:09;22.40;99.90
5278;DHT22;2662;51.194;6.614;2023-09-19T14:00:37;22.30;99.90
5278;DHT22;2662;51.194;6.614;2023-09-19T14:03:04;22.10;99.90
5278;DHT22;2662;51.194;6.614;2023-09-19T14:05:33;22.10;99.90
5278;DHT22;2662;51.194;6.614;2023-09-19T14:07:59;22.20;99.90
5278;DHT22;2662;51.194;6.614;2023-09-19T14:10:28;22.20;99.90
5278;DHT22;2662;51.194;6.614;2023-09-19T14:12:56;22.30;99.90
5278;DHT22;2662;51.194;6.614;2023-09-19T14:15:24;22.30;99.90
5278;DHT22;2662;51.194;6.614;2023-09-19T14:17:56;22.00;99.90
5278;DHT22;2662;51.194;6.614;2023-09-19T14:20:22;22.10;99.90
5278;DHT22;2662;51.194;6.614;2023-09-19T14:22:51;22.20;99.90
5278;DHT22;2662;51.194;6.614;2023-09-19T14:25:17;22.30;99.90
5278;DHT22;2662;51.194;6.614;2023-09-19T14:27:44;22.40;99.90
5278;DHT22;2662;51.194;6.614;2023-09-19T14:30:11;22.40;99.90
5278;DHT22;2662;51.194;6.614;2023-09-19T14:32:38;22.20;99.90
5278;DHT22;2662;51.194;6.614;2023-09-19T14:35:06;22.10;99.90
5278;DHT22;2662;51.194;6.614;2023-09-19T14:37:34;22.20;99.90
5278;DHT22;2662;51.194;6.614;2023-09-19T14:40:06;22.20;99.90
5278;DHT22;2662;51.194;6.614;2023-09-19T14:42:35;22.10;99.90
5278;DHT22;2662;51.194;6.614;2023-09-19T14:45:04;22.00;99.90
5278;DHT22;2662;51.194;6.614;2023-09-19T14:47:32;21.80;99.90
5278;DHT22;2662;51.194;6.614;2023-09-19T14:49:59;21.70;99.90
5278;DHT22;2662;51.194;6.614;2023-09-19T14:52:26;21.60;99.90
5278;DHT22;2662;51.194;6.614;2023-09-19T14:54:54;21.40;99.90
5278;DHT22;2662;51.194;6.614;2023-09-19T14:57:22;21.40;99.90
5278;DHT22;2662;51.194;6.614;2023-09-19T14:59:50;21.20;99.90
5278;DHT22;2662;51.194;6.614;2023-09-19T15:02:17;21.20;99.90
5278;DHT22;2662;51.194;6.614;2023-09-19T15:04:44;21.20;99.90
5278;DHT22;2662;51.194;6.614;2023-09-19T15:07:12;21.30;99.90
5278;DHT22;2662;51.194;6.614;2023-09-19T15:09:40;21.40;99.90
5278;DHT22;2662;51.194;6.614;2023-09-19T15:12:07;21.40;99.90
5278;DHT22;2662;51.194;6.614;2023-09-19T15:14:35;21.30;99.90
5278;DHT22;2662;51.194;6.614;2023-09-19T15:17:02;21.20;99.90
5278;DHT22;2662;51.194;6.614;2023-09-19T15:19:30;21.20;99.90
5278;DHT22;2662;51.194;6.614;2023-09-19T15:21:57;21.20;99.90
5278;DHT22;2662;51.194;6.614;2023-09-19T15:24:24;21.20;99.90
5278;DHT22;2662;51.194;6.614;2023-09-19T15:26:52;21.20;99.90
5278;DHT22;2662;51.194;6.614;2023-09-19T15:29:21;21.30;99.90
5278;DHT22;2662;51.194;6.614;2023-09-19T15:31:49;21.30;99.90
5278;DHT22;2662;51.194;6.614;2023-09-19T15:34:16;21.20;99.90
5278;DHT22;2662;51.194;6.614;2023-09-19T15:36:43;21.40;99.90
5278;DHT22;2662;51.194;6.614;2023-09-19T15:39:11;21.50;99.90
5278;DHT22;2662;51.194;6.614;2023-09-19T15:41:44;21.60;99.90
5278;DHT22;2662;51.194;6.614;2023-09-19T15:44:12;21.70;99.90
5278;DHT22;2662;51.194;6.614;2023-09-19T15:46:39;21.80;99.90
5278;DHT22;2662;51.194;6.614;2023-09-19T15:49:08;21.90;99.90
5278;DHT22;2662;51.194;6.614;2023-09-19T15:51:35;21.80;99.90
5278;DHT22;2662;51.194;6.614;2023-09-19T15:54:07;21.80;99.90
5278;DHT22;2662;51.194;6.614;2023-09-19T15:56:34;21.70;99.90
5278;DHT22;2662;51.194;6.614;2023-09-19T15:59:01;21.60;99.90
5278;DHT22;2662;51.194;6.614;2023-09-19T16:01:28;21.60;99.90
5278;DHT22;2662;51.194;6.614;2023-09-19T16:03:57;21.60;99.90
5278;DHT22;2662;51.194;6.614;2023-09-19T16:06:27;21.70;99.90
5278;DHT22;2662;51.194;6.614;2023-09-19T16:08:55;21.80;99.90
5278;DHT22;2662;51.194;6.614;2023-09-19T16:11:24;21.90;99.90
5278;DHT22;2662;51.194;6.614;2023-09-19T16:13:51;22.00;99.90
5278;DHT22;2662;51.194;6.614;2023-09-19T16:16:19;21.80;99.90
5278;DHT22;2662;51.194;6.614;2023-09-19T16:18:48;21.80;99.90
5278;DHT22;2662;51.194;6.614;2023-09-19T16:21:16;21.70;99.90
5278;DHT22;2662;51.194;6.614;2023-09-19T16:23:46;21.70;99.90
5278;DHT22;2662;51.194;6.614;2023-09-19T16:26:13;21.40;99.90
5278;DHT22;2662;51.194;6.614;2023-09-19T16:28:40;21.30;99.90